createdAt,value
2018-02-24T00:00:42.493Z,2.30
2018-02-24T00:03:10.567Z,2.30
2018-02-24T00:05:38.739Z,2.30
2018-02-24T00:08:06.910Z,2.40
2018-02-24T00:10:34.979Z,2.40
2018-02-24T00:13:02.949Z,2.40
2018-02-24T00:15:31.664Z,2.40
2018-02-24T00:18:00.528Z,2.40
2018-02-24T00:20:28.810Z,2.40
2018-02-24T00:22:56.972Z,2.40
2018-02-24T00:25:25.159Z,2.40
2018-02-24T00:27:53.219Z,2.40
2018-02-24T00:30:21.403Z,2.40
2018-02-24T00:32:49.679Z,2.40
2018-02-24T00:35:17.738Z,2.40
2018-02-24T00:37:45.820Z,2.40
2018-02-24T00:40:14.383Z,2.40
2018-02-24T00:42:42.362Z,2.50
2018-02-24T00:45:10.542Z,2.50
2018-02-24T00:47:40.243Z,2.50
2018-02-24T00:50:08.315Z,2.50
2018-02-24T00:52:36.500Z,2.50
2018-02-24T00:55:04.664Z,2.50
2018-02-24T00:57:32.948Z,2.50
2018-02-24T01:00:01.008Z,2.60
2018-02-24T01:02:29.090Z,2.60
2018-02-24T01:04:57.257Z,2.60
2018-02-24T01:07:25.324Z,2.60
2018-02-24T01:09:53.216Z,2.60
2018-02-24T01:12:22.195Z,2.60
2018-02-24T01:14:50.369Z,2.60
2018-02-24T01:17:18.535Z,2.60
2018-02-24T01:19:46.603Z,2.70
2018-02-24T01:22:14.777Z,2.70
2018-02-24T01:24:42.745Z,2.70
2018-02-24T01:27:10.928Z,2.70
2018-02-24T01:29:39.092Z,2.70
2018-02-24T01:32:07.172Z,2.70
2018-02-24T01:34:35.347Z,2.70
2018-02-24T01:37:03.390Z,2.70
2018-02-24T01:39:31.590Z,2.70
2018-02-24T01:41:59.757Z,2.70
2018-02-24T01:44:28.544Z,2.70
2018-02-24T01:46:56.716Z,2.70
2018-02-24T01:49:24.900Z,2.70
2018-02-24T01:51:53.777Z,2.70
2018-02-24T01:54:21.747Z,2.70
2018-02-24T01:56:50.436Z,2.70
2018-02-24T01:59:18.513Z,2.70
2018-02-24T02:01:46.678Z,2.70
2018-02-24T02:04:14.662Z,2.80
2018-02-24T02:06:42.715Z,2.80
2018-02-24T02:09:10.847Z,2.80
2018-02-24T02:11:38.971Z,2.80
2018-02-24T02:14:07.137Z,2.80
2018-02-24T02:16:35.103Z,2.80
2018-02-24T02:19:03.288Z,2.80
2018-02-24T02:21:31.461Z,2.80
2018-02-24T02:23:59.521Z,2.80
2018-02-24T02:26:27.591Z,2.90
2018-02-24T02:28:55.663Z,2.90
2018-02-24T02:31:23.795Z,2.90
2018-02-24T02:33:51.920Z,2.90
2018-02-24T02:36:20.194Z,2.90
2018-02-24T02:38:48.369Z,2.90
2018-02-24T02:41:16.430Z,3.00
2018-02-24T02:43:44.614Z,3.00
2018-02-24T02:46:14.209Z,3.00
2018-02-24T02:48:42.383Z,2.90
2018-02-24T02:51:10.350Z,3.00
2018-02-24T02:53:38.426Z,3.00
2018-02-24T02:56:06.599Z,3.00
2018-02-24T02:58:34.560Z,3.00
2018-02-24T03:01:02.637Z,3.00
2018-02-24T03:03:30.718Z,3.10
2018-02-24T03:05:58.881Z,3.10
2018-02-24T03:08:27.064Z,3.10
2018-02-24T03:10:55.327Z,3.10
2018-02-24T03:13:23.500Z,3.10
2018-02-24T03:15:51.677Z,3.20
2018-02-24T03:18:19.852Z,3.10
2018-02-24T03:20:47.921Z,3.20
2018-02-24T03:23:16.002Z,3.20
2018-02-24T03:25:44.165Z,3.20
2018-02-24T03:28:12.349Z,3.20
2018-02-24T03:30:40.414Z,3.20
2018-02-24T03:33:08.481Z,3.20
2018-02-24T03:35:36.656Z,3.20
2018-02-24T03:38:04.831Z,3.20
2018-02-24T03:40:32.901Z,3.20
2018-02-24T03:43:01.079Z,3.20
2018-02-24T03:45:29.145Z,3.20
2018-02-24T03:47:57.315Z,3.30
2018-02-24T03:50:26.000Z,3.30
2018-02-24T03:52:54.241Z,3.30
2018-02-24T03:55:22.354Z,3.30
2018-02-24T03:57:51.957Z,3.30
2018-02-24T04:00:20.038Z,3.30
2018-02-24T04:02:48.212Z,3.30
2018-02-24T04:05:16.589Z,3.40
2018-02-24T04:07:45.377Z,3.40
2018-02-24T04:10:13.543Z,3.40
2018-02-24T04:12:41.715Z,3.40
2018-02-24T04:15:09.892Z,3.40
2018-02-24T04:17:38.065Z,3.40
2018-02-24T04:20:05.970Z,3.40
2018-02-24T04:22:33.996Z,3.40
2018-02-24T04:25:02.173Z,3.50
2018-02-24T04:27:30.348Z,3.50
2018-02-24T04:29:58.426Z,3.50
2018-02-24T04:32:26.498Z,3.50
2018-02-24T04:34:54.670Z,3.50
2018-02-24T04:37:22.948Z,3.50
2018-02-24T04:39:51.112Z,3.50
2018-02-24T04:42:19.181Z,3.50
2018-02-24T04:44:47.363Z,3.50
2018-02-24T04:47:15.529Z,3.50
2018-02-24T04:49:43.701Z,3.50
2018-02-24T04:52:11.773Z,3.40
2018-02-24T04:54:39.844Z,3.50
2018-02-24T04:57:07.917Z,3.50
2018-02-24T04:59:35.983Z,3.50
2018-02-24T05:02:04.055Z,3.50
2018-02-24T05:04:32.127Z,3.50
2018-02-24T05:07:00.310Z,3.50
2018-02-24T05:09:28.883Z,3.60
2018-02-24T05:11:57.169Z,3.60
2018-02-24T05:14:26.156Z,3.60
2018-02-24T05:16:54.227Z,3.70
2018-02-24T05:19:22.195Z,3.70
2018-02-24T05:21:50.267Z,3.70
2018-02-24T05:24:19.254Z,3.70
2018-02-24T05:26:47.329Z,3.70
2018-02-24T05:29:15.513Z,3.70
2018-02-24T05:31:43.726Z,3.70
2018-02-24T05:34:11.849Z,3.70
2018-02-24T05:36:39.917Z,3.70
2018-02-24T05:39:07.988Z,3.70
2018-02-24T05:41:36.169Z,3.70
2018-02-24T05:44:04.231Z,3.70
2018-02-24T05:46:32.200Z,3.70
2018-02-24T05:49:00.377Z,3.70
2018-02-24T05:51:28.445Z,3.70
2018-02-24T05:53:56.622Z,3.70
2018-02-24T05:56:24.907Z,3.70
2018-02-24T05:58:53.082Z,3.70
2018-02-24T06:01:21.245Z,3.70
2018-02-24T06:03:49.421Z,3.70
2018-02-24T06:06:17.594Z,3.80
2018-02-24T06:08:45.776Z,3.80
2018-02-24T06:11:13.937Z,3.80
2018-02-24T06:13:42.113Z,3.80
2018-02-24T06:16:10.285Z,3.80
2018-02-24T06:18:38.354Z,3.80
2018-02-24T06:21:06.321Z,3.80
2018-02-24T06:23:34.398Z,3.80
2018-02-24T06:26:02.464Z,3.80
2018-02-24T06:28:30.637Z,3.80
2018-02-24T06:30:58.815Z,3.80
2018-02-24T06:33:26.885Z,3.80
2018-02-24T06:35:54.851Z,3.80
2018-02-24T06:38:23.035Z,3.90
2018-02-24T06:40:51.414Z,3.80
2018-02-24T06:43:19.587Z,3.80
2018-02-24T06:45:48.479Z,3.90
2018-02-24T06:48:16.647Z,3.90
2018-02-24T06:50:44.710Z,3.90
2018-02-24T06:53:12.794Z,3.90
2018-02-24T06:55:41.071Z,3.90
2018-02-24T06:58:09.233Z,4.00
2018-02-24T07:00:37.302Z,4.00
2018-02-24T07:03:05.480Z,4.00
2018-02-24T07:05:33.547Z,4.10
2018-02-24T07:08:01.620Z,4.00
2018-02-24T07:10:29.794Z,4.10
2018-02-24T07:12:57.979Z,4.10
2018-02-24T07:15:26.143Z,4.10
2018-02-24T07:17:54.311Z,4.10
2018-02-24T07:20:22.382Z,4.20
2018-02-24T07:22:50.467Z,4.20
2018-02-24T07:25:19.349Z,4.30
2018-02-24T07:27:48.132Z,4.30
2018-02-24T07:30:16.317Z,4.30
2018-02-24T07:32:44.481Z,4.40
2018-02-24T07:35:12.664Z,4.40
2018-02-24T07:37:40.829Z,4.40
2018-02-24T07:40:08.820Z,4.50
2018-02-24T07:42:37.799Z,4.50
2018-02-24T07:45:05.964Z,4.50
2018-02-24T07:47:34.751Z,4.60
2018-02-24T07:50:02.819Z,4.60
2018-02-24T07:52:30.902Z,4.60
2018-02-24T07:54:59.070Z,4.60
2018-02-24T07:57:27.135Z,4.60
2018-02-24T07:59:55.205Z,4.60
2018-02-24T08:02:23.385Z,4.70
2018-02-24T08:04:51.557Z,4.70
2018-02-24T08:07:19.739Z,4.80
2018-02-24T08:09:48.628Z,4.80
2018-02-24T08:12:16.801Z,4.80
2018-02-24T08:14:44.963Z,4.90
2018-02-24T08:17:13.859Z,4.90
2018-02-24T08:19:42.641Z,5.00
2018-02-24T08:22:10.718Z,5.00
2018-02-24T08:24:38.749Z,5.10
2018-02-24T08:27:07.485Z,5.10
2018-02-24T08:29:35.641Z,5.20
2018-02-24T08:32:03.725Z,5.20
2018-02-24T08:34:32.410Z,5.30
2018-02-24T08:37:00.483Z,5.30
2018-02-24T08:39:28.541Z,5.40
2018-02-24T08:41:57.227Z,5.40
2018-02-24T08:44:25.412Z,5.40
2018-02-24T08:46:53.572Z,5.40
2018-02-24T08:49:21.746Z,5.40
2018-02-24T08:51:49.829Z,5.40
2018-02-24T08:54:17.893Z,5.50
2018-02-24T08:56:46.882Z,5.50
2018-02-24T08:59:15.060Z,5.50
2018-02-24T09:01:43.137Z,5.50
2018-02-24T09:04:11.203Z,5.60
2018-02-24T09:06:39.383Z,5.60
2018-02-24T09:09:07.556Z,5.60
2018-02-24T09:11:35.728Z,5.70
2018-02-24T09:14:04.005Z,5.70
2018-02-24T09:16:32.063Z,5.90
2018-02-24T09:19:00.751Z,6.00
2018-02-24T09:21:28.928Z,6.10
2018-02-24T09:23:56.995Z,6.30
2018-02-24T09:26:25.065Z,6.40
2018-02-24T09:28:53.137Z,6.60
2018-02-24T09:31:21.424Z,6.70
2018-02-24T09:33:49.591Z,6.80
2018-02-24T09:36:17.660Z,7.00
2018-02-24T09:38:45.627Z,7.10
2018-02-24T09:41:13.697Z,7.10
2018-02-24T09:43:42.487Z,7.20
2018-02-24T09:46:10.514Z,7.30
2018-02-24T09:48:38.741Z,7.30
2018-02-24T09:51:07.019Z,7.40
2018-02-24T09:53:35.190Z,7.40
2018-02-24T09:56:03.250Z,7.40
2018-02-24T09:58:31.424Z,7.40
2018-02-24T10:01:00.931Z,7.40
2018-02-24T10:03:28.601Z,7.40
2018-02-24T10:05:56.673Z,7.40
2018-02-24T10:08:24.836Z,7.40
2018-02-24T10:10:52.904Z,7.50
2018-02-24T10:13:20.988Z,7.60
2018-02-24T10:15:49.047Z,7.70
2018-02-24T10:18:17.231Z,7.80
2018-02-24T10:20:45.289Z,7.90
2018-02-24T10:23:13.374Z,8.00
2018-02-24T10:25:41.538Z,8.00
2018-02-24T10:28:09.619Z,8.10
2018-02-24T10:30:37.681Z,8.20
2018-02-24T10:33:05.762Z,8.20
2018-02-24T10:35:34.447Z,8.30
2018-02-24T10:38:02.506Z,8.40
2018-02-24T10:40:31.510Z,8.50
2018-02-24T10:42:59.676Z,8.70
2018-02-24T10:45:27.754Z,8.70
2018-02-24T10:47:58.556Z,8.80
2018-02-24T10:50:26.652Z,8.90
2018-02-24T10:52:54.835Z,9.00
2018-02-24T10:55:23.622Z,9.00
2018-02-24T10:57:52.399Z,9.10
2018-02-24T11:00:20.473Z,9.10
2018-02-24T11:02:48.541Z,9.10
2018-02-24T11:05:16.616Z,9.20
2018-02-24T11:07:44.695Z,9.40
2018-02-24T11:10:12.857Z,9.80
2018-02-24T11:12:41.030Z,10.30
2018-02-24T11:15:09.318Z,10.70
2018-02-24T11:20:12.423Z,11.40
2018-02-24T11:22:40.587Z,11.40
2018-02-24T11:25:08.771Z,11.60
2018-02-24T11:27:36.834Z,11.60
2018-02-24T11:30:05.723Z,11.60
2018-02-24T11:32:33.802Z,11.60
2018-02-24T11:35:01.975Z,11.80
2018-02-24T11:37:30.149Z,12.10
2018-02-24T11:39:58.313Z,12.50
2018-02-24T11:42:27.212Z,12.70
2018-02-24T11:44:55.276Z,12.70
2018-02-24T11:47:23.240Z,12.70
2018-02-24T11:49:51.419Z,12.80
2018-02-24T11:52:22.001Z,12.60
2018-02-24T11:54:50.014Z,12.40
2018-02-24T11:57:18.187Z,12.20
2018-02-24T11:59:46.156Z,12.10
2018-02-24T12:02:14.334Z,12.40
2018-02-24T12:04:42.508Z,12.90
2018-02-24T12:07:10.688Z,13.00
2018-02-24T12:09:38.854Z,12.90
2018-02-24T12:12:07.024Z,12.60
2018-02-24T12:14:35.918Z,12.50
2018-02-24T12:17:04.089Z,12.80
2018-02-24T12:19:34.825Z,12.80
2018-02-24T12:22:14.729Z,12.70
2018-02-24T12:24:54.293Z,12.50
2018-02-24T12:27:22.278Z,12.10
2018-02-24T12:29:50.361Z,11.90
2018-02-24T12:32:18.421Z,11.60
2018-02-24T12:34:47.119Z,11.40
2018-02-24T12:37:16.000Z,11.10
2018-02-24T12:39:45.502Z,10.70
2018-02-24T12:42:13.674Z,10.70
2018-02-24T12:44:41.758Z,10.60
2018-02-24T12:47:10.024Z,10.40
2018-02-24T12:49:38.263Z,10.30
2018-02-24T12:52:06.573Z,10.20
2018-02-24T12:54:34.644Z,10.10
2018-02-24T12:57:02.919Z,10.00
2018-02-24T12:59:30.990Z,9.80
2018-02-24T13:01:59.789Z,9.70
2018-02-24T13:04:27.957Z,9.60
2018-02-24T13:06:55.871Z,9.50
2018-02-24T13:09:23.889Z,9.40
2018-02-24T13:12:00.334Z,9.30
2018-02-24T13:14:28.646Z,9.20
2018-02-24T13:16:58.559Z,9.10
2018-02-24T13:19:27.142Z,8.90
2018-02-24T13:21:55.202Z,8.80
2018-02-24T13:24:23.437Z,8.70
2018-02-24T13:26:52.584Z,8.60
2018-02-24T13:29:23.414Z,8.50
2018-02-24T13:31:53.015Z,8.50
2018-02-24T13:34:21.201Z,8.40
2018-02-24T13:36:49.471Z,8.30
2018-02-24T13:39:18.402Z,8.30
2018-02-24T13:41:46.540Z,8.20
2018-02-24T13:44:14.816Z,8.20
2018-02-24T13:46:42.745Z,8.20
2018-02-24T13:49:10.742Z,8.20
2018-02-24T13:51:40.463Z,8.20
2018-02-24T13:54:08.631Z,8.20
2018-02-24T13:56:39.472Z,8.30
2018-02-24T13:59:07.646Z,8.40
2018-02-24T14:01:35.922Z,8.40
2018-02-24T14:04:04.089Z,8.40
2018-02-24T14:06:32.768Z,8.40
2018-02-24T14:09:00.957Z,8.40
2018-02-24T14:11:29.116Z,8.30
2018-02-24T14:13:57.190Z,8.30
2018-02-24T14:16:25.361Z,8.40
2018-02-24T14:18:54.365Z,8.40
2018-02-24T14:21:23.357Z,8.30
2018-02-24T14:23:51.416Z,8.30
2018-02-24T14:26:19.588Z,8.30
2018-02-24T14:28:47.775Z,8.20
2018-02-24T14:31:16.451Z,8.10
2018-02-24T14:33:44.623Z,8.10
2018-02-24T14:36:12.801Z,8.10
2018-02-24T14:38:40.982Z,8.10
2018-02-24T14:41:09.258Z,8.00
2018-02-24T14:43:37.316Z,8.00
2018-02-24T14:46:05.496Z,7.90
2018-02-24T14:48:33.676Z,7.90
2018-02-24T14:51:01.836Z,7.90
2018-02-24T14:53:30.364Z,7.90
2018-02-24T14:55:58.496Z,7.80
2018-02-24T14:58:26.677Z,7.80
2018-02-24T15:00:54.844Z,7.80
2018-02-24T15:03:23.015Z,7.80
2018-02-24T15:05:51.187Z,7.80
2018-02-24T15:08:19.270Z,7.80
2018-02-24T15:10:47.327Z,7.80
2018-02-24T15:13:15.410Z,7.70
2018-02-24T15:15:43.584Z,7.70
2018-02-24T15:18:11.751Z,7.70
2018-02-24T15:20:39.923Z,7.70
2018-02-24T15:23:08.104Z,7.60
2018-02-24T15:25:36.175Z,7.60
2018-02-24T15:28:04.443Z,7.60
2018-02-24T15:30:33.366Z,7.60
2018-02-24T15:33:02.333Z,7.60
2018-02-24T15:35:30.393Z,7.50
2018-02-24T15:37:58.464Z,7.60
2018-02-24T15:40:27.366Z,7.60
2018-02-24T15:42:55.551Z,7.50
2018-02-24T15:45:24.420Z,7.50
2018-02-24T15:47:52.596Z,7.50
2018-02-24T15:50:20.777Z,7.50
2018-02-24T15:52:48.943Z,7.50
2018-02-24T15:55:17.133Z,7.50
2018-02-24T15:57:46.217Z,7.50
2018-02-24T16:00:14.277Z,7.50
2018-02-24T16:02:42.457Z,7.50
2018-02-24T16:05:10.636Z,7.50
2018-02-24T16:07:38.798Z,7.50
2018-02-24T16:10:06.983Z,7.40
2018-02-24T16:12:35.261Z,7.40
2018-02-24T16:15:03.423Z,7.40
2018-02-24T16:17:31.593Z,7.40
2018-02-24T16:19:59.779Z,7.40
2018-02-24T16:22:27.941Z,7.40
2018-02-24T16:24:56.027Z,7.40
2018-02-24T16:27:24.299Z,7.30
2018-02-24T16:29:52.576Z,7.30
2018-02-24T16:32:20.843Z,7.30
2018-02-24T16:34:48.910Z,7.30
2018-02-24T16:37:16.994Z,7.30
2018-02-24T16:39:45.058Z,7.20
2018-02-24T16:42:13.154Z,7.20
2018-02-24T16:44:41.413Z,7.20
2018-02-24T16:47:09.575Z,7.20
2018-02-24T16:49:37.749Z,7.10
2018-02-24T16:52:05.932Z,7.10
2018-02-24T16:54:34.811Z,7.00
2018-02-24T16:57:02.983Z,7.00
2018-02-24T16:59:31.067Z,7.00
2018-02-24T17:01:59.241Z,7.00
2018-02-24T17:04:27.414Z,6.90
2018-02-24T17:06:55.578Z,6.90
2018-02-24T17:09:23.862Z,6.80
2018-02-24T17:11:52.127Z,6.80
2018-02-24T17:14:20.620Z,6.70
2018-02-24T17:16:48.786Z,6.60
2018-02-24T17:19:16.865Z,6.60
2018-02-24T17:21:45.133Z,6.50
2018-02-24T17:24:13.305Z,6.50
2018-02-24T17:26:43.119Z,6.40
2018-02-24T17:29:11.402Z,6.30
2018-02-24T17:31:39.563Z,6.30
2018-02-24T17:34:07.634Z,6.20
2018-02-24T17:36:36.727Z,6.10
2018-02-24T17:39:05.005Z,6.10
2018-02-24T17:41:33.796Z,6.00
2018-02-24T17:44:01.992Z,6.00
2018-02-24T17:46:30.960Z,5.90
2018-02-24T17:48:59.674Z,5.90
2018-02-24T17:51:28.534Z,5.80
2018-02-24T17:53:58.476Z,5.70
2018-02-24T17:56:27.201Z,5.70
2018-02-24T17:58:55.307Z,5.70
2018-02-24T18:01:23.494Z,5.60
2018-02-24T18:03:51.492Z,5.60
2018-02-24T18:06:20.547Z,5.50
2018-02-24T18:08:48.616Z,5.50
2018-02-24T18:11:16.894Z,5.50
2018-02-24T18:13:44.966Z,5.50
2018-02-24T18:16:13.150Z,5.40
2018-02-24T18:18:41.310Z,5.40
2018-02-24T18:21:09.485Z,5.40
2018-02-24T18:23:38.993Z,5.40
2018-02-24T18:26:07.166Z,5.40
2018-02-24T18:28:35.744Z,5.40
2018-02-24T18:31:03.968Z,5.40
2018-02-24T18:33:32.192Z,5.40
2018-02-24T18:36:00.481Z,5.40
2018-02-24T18:38:28.655Z,5.40
2018-02-24T18:40:56.829Z,5.40
2018-02-24T18:43:24.887Z,5.40
2018-02-24T18:45:53.065Z,5.40
2018-02-24T18:48:21.234Z,5.40
2018-02-24T18:50:50.034Z,5.40
2018-02-24T18:53:18.092Z,5.40
2018-02-24T18:55:46.381Z,5.40
2018-02-24T18:58:14.556Z,5.40
2018-02-24T19:00:42.613Z,5.40
2018-02-24T19:03:11.194Z,5.40
2018-02-24T19:05:39.476Z,5.40
2018-02-24T19:08:07.647Z,5.40
2018-02-24T19:10:35.824Z,5.40
2018-02-24T19:13:03.900Z,5.40
2018-02-24T19:15:32.064Z,5.40
2018-02-24T19:18:00.135Z,5.40
2018-02-24T19:20:28.425Z,5.40
2018-02-24T19:22:56.580Z,5.50
2018-02-24T19:25:25.078Z,5.50
2018-02-24T19:27:53.654Z,5.50
2018-02-24T19:30:22.042Z,5.50
2018-02-24T19:32:50.233Z,5.50
2018-02-24T19:35:19.096Z,5.40
2018-02-24T19:37:47.075Z,5.40
2018-02-24T19:40:15.130Z,5.50
2018-02-24T19:42:44.122Z,5.50
2018-02-24T19:45:12.195Z,5.50
2018-02-24T19:47:40.379Z,5.50
2018-02-24T19:50:08.541Z,5.50
2018-02-24T19:52:37.021Z,5.50
2018-02-24T19:55:06.030Z,5.50
2018-02-24T19:57:37.342Z,5.50
2018-02-24T20:00:07.800Z,5.50
2018-02-24T20:02:35.866Z,5.50
2018-02-24T20:05:03.997Z,5.50
2018-02-24T20:07:32.372Z,5.50
2018-02-24T20:10:00.494Z,5.50
2018-02-24T20:12:28.450Z,5.50
2018-02-24T20:14:56.535Z,5.50
2018-02-24T20:17:25.220Z,5.50
2018-02-24T20:19:55.019Z,5.50
2018-02-24T20:22:25.970Z,5.50
2018-02-24T20:24:54.028Z,5.50
2018-02-24T20:27:25.275Z,5.50
2018-02-24T20:29:53.459Z,5.50
2018-02-24T20:32:21.632Z,5.50
2018-02-24T20:34:49.692Z,5.50
2018-02-24T20:37:18.800Z,5.40
2018-02-24T20:39:46.860Z,5.40
2018-02-24T20:42:15.849Z,5.40
2018-02-24T20:44:44.035Z,5.40
2018-02-24T20:47:12.196Z,5.40
2018-02-24T20:49:40.370Z,5.40
2018-02-24T20:52:08.659Z,5.40
2018-02-24T20:54:36.822Z,5.40
2018-02-24T20:57:05.005Z,5.40
2018-02-24T20:59:34.195Z,5.40
2018-02-24T21:02:02.268Z,5.40
2018-02-24T21:04:30.342Z,5.40
2018-02-24T21:06:58.724Z,5.40
2018-02-24T21:09:26.890Z,5.40
2018-02-24T21:11:55.053Z,5.40
2018-02-24T21:14:23.232Z,5.40
2018-02-24T21:16:51.502Z,5.40
2018-02-24T21:19:19.584Z,5.40
2018-02-24T21:21:47.757Z,5.40
2018-02-24T21:24:15.938Z,5.40
2018-02-24T21:26:44.876Z,5.40
2018-02-24T21:29:12.887Z,5.50
2018-02-24T21:31:40.970Z,5.50
2018-02-24T21:34:09.033Z,5.50
2018-02-24T21:36:37.101Z,5.50
2018-02-24T21:39:05.286Z,5.50
2018-02-24T21:41:33.479Z,5.50
2018-02-24T21:44:02.342Z,5.50
2018-02-24T21:46:31.130Z,5.50
2018-02-24T21:49:00.029Z,5.50
2018-02-24T21:51:28.720Z,5.50
2018-02-24T21:53:57.596Z,5.50
2018-02-24T21:56:25.765Z,5.50
2018-02-24T21:58:54.147Z,5.50
2018-02-24T22:01:24.884Z,5.50
2018-02-24T22:03:52.947Z,5.50
2018-02-24T22:06:21.030Z,5.50
2018-02-24T22:08:49.197Z,5.50
2018-02-24T22:11:17.368Z,5.50
2018-02-24T22:13:45.440Z,5.50
2018-02-24T22:16:14.440Z,5.50
2018-02-24T22:18:43.224Z,5.50
2018-02-24T22:21:11.189Z,5.50
2018-02-24T22:23:39.371Z,5.50
2018-02-24T22:26:07.430Z,5.50
2018-02-24T22:28:35.606Z,5.50
2018-02-24T22:31:03.777Z,5.50
2018-02-24T22:33:31.967Z,5.50
2018-02-24T22:36:00.238Z,5.50
2018-02-24T22:38:28.413Z,5.50
2018-02-24T22:40:56.582Z,5.50
2018-02-24T22:43:24.542Z,5.50
2018-02-24T22:45:53.333Z,5.50
2018-02-24T22:48:28.479Z,5.50
2018-02-24T22:50:56.645Z,5.50
2018-02-24T22:53:24.819Z,5.60
2018-02-24T22:55:53.066Z,5.60
2018-02-24T22:58:21.163Z,5.60
2018-02-24T23:00:49.338Z,5.60
2018-02-24T23:03:17.510Z,5.60
2018-02-24T23:05:46.307Z,5.60
2018-02-24T23:08:14.370Z,5.60
2018-02-24T23:10:42.551Z,5.60
2018-02-24T23:13:10.611Z,5.60
2018-02-24T23:15:38.686Z,5.60
2018-02-24T23:18:06.753Z,5.50
2018-02-24T23:20:34.930Z,5.60
2018-02-24T23:23:02.997Z,5.60
2018-02-24T23:25:31.067Z,5.50
2018-02-24T23:27:59.251Z,5.50
2018-02-24T23:30:27.313Z,5.50
2018-02-24T23:32:55.280Z,5.50
2018-02-24T23:35:23.250Z,5.50
2018-02-24T23:37:51.429Z,5.50
2018-02-24T23:40:20.532Z,5.50
2018-02-24T23:42:51.095Z,5.50
2018-02-24T23:45:19.334Z,5.50
2018-02-24T23:47:48.531Z,5.50
2018-02-24T23:50:16.706Z,5.50
2018-02-24T23:52:44.872Z,5.50
2018-02-24T23:55:12.938Z,5.50
2018-02-24T23:57:41.118Z,5.50
